Nearby Meteorological Terminal Aviation Routine Weather Reports (METAR)
KAVP - Avoca/Wilkes B., Pennsylvania, USA
Distance from station: NE 13mi, 20km
Updated: Tue, 20-Feb-2018 9:54am EST
Mist, Overcast
Mist, Overcast
 Wind from SW
Wind: SW 6 mph , 9 km/h
Temperature: 46°F , 8°C
Wind Chill: 43°F , 6°C
Dew Point: 46°F , 8°C
Humidity: 100%
Barometer: 30.29 inHg , 1025.7 hPa
Summary: Mist
Clouds: Overcast
Visibility: 2 miles , 3 km
Cloud details: Overcast 200 ft
2018/02/20 14:54 KAVP 201454Z 23005KT 2SM BR OVC002 08/08 A3029 RMK AO2 SLP261 T00780078 50005
KMPO - Mt. Pocono, Pennsylvania, USA
Distance from station: ESE 28mi, 45km
Updated: Tue, 20-Feb-2018 9:53am EST
Clear
Clear
 Wind from WSW
Wind: WSW 13 mph , 20 km/h
Temperature: 52°F , 11°C
Dew Point: 50°F , 10°C
Humidity: 94%
Barometer: 30.29 inHg , 1025.7 hPa
Clouds: Clear
Visibility: 10 miles , 16 km
2018/02/20 14:53 KMPO 201453Z AUTO 24011KT 10SM CLR 11/10 A3029 RMK AO2 SLP265 T01110100 50006 $
 
KABE - Allentown, Pennsylvania, USA
Distance from station: SSE 46mi, 74km
Updated: Tue, 20-Feb-2018 9:51am EST
Fog, Overcast
Fog, Overcast
 Wind from calm
Wind: Calm
Temperature: 45°F , 7°C
Dew Point: 43°F , 6°C
Humidity: 93%
Barometer: 30.35 inHg , 1027.8 hPa
Summary: Fog
Clouds: Overcast
Visibility: 1/4 mile , 2 km
Cloud details: Overcast 200 ft
2018/02/20 14:51 KABE 201451Z AUTO 00000KT 1/4SM FG VV002 07/06 A3035 RMK AO2 SLP279 T00670056 50005
KXLL - Allentown Queen, Pennsylvania, USA
Distance from station: SSE 50mi, 81km
Updated: Tue, 20-Feb-2018 9:55am EST
Mist, Overcast
Mist, Overcast
 Wind from calm
Wind: Calm
Temperature: 45°F , 7°C
Dew Point: 45°F , 7°C
Humidity: 100%
Barometer: 30.36 inHg , 1028.1 hPa
Summary: Mist
Clouds: Overcast
Visibility: 1 mile , 2 km
Cloud details: Overcast 200 ft
2018/02/20 14:55 KXLL 201455Z AUTO 00000KT 1SM BR OVC002 07/07 A3036 RMK AO2
 
KIPT - Williamsport, Pennsylvania, USA
Distance from station: W 52mi, 84km
Updated: Tue, 20-Feb-2018 10:04am EST
Overcast
Overcast
 Wind from varies
Wind: varies 5 mph , 7 km/h
Temperature: 46°F , 8°C
Wind Chill: 44°F , 7°C
Dew Point: 45°F , 7°C
Humidity: 93%
Barometer: 30.30 inHg , 1026.1 hPa
Clouds: Overcast
Visibility: 2 miles , 3 km
Cloud details: Overcast 800 ft
2018/02/20 15:04 KIPT 201504Z VRB04KT 2SM OVC008 08/07 A3030 RMK AO2 SFC VIS 8 CIG 004V012 T00780072
KSEG - Selinsgrove, Pennsylvania, USA
Distance from station: WSW 57mi, 92km
Updated: Tue, 20-Feb-2018 9:53am EST
Mist, Overcast
Mist, Overcast
 Wind from SSW
Wind: SSW 6 mph , 9 km/h
Temperature: 45°F , 7°C
Wind Chill: 42°F , 6°C
Dew Point: 45°F , 7°C
Humidity: 100%
Barometer: 30.32 inHg , 1026.8 hPa
Summary: Mist
Clouds: Overcast
Visibility: 2 1/2 miles , 2 km
Cloud details: Overcast 200 ft
2018/02/20 14:53 KSEG 201453Z AUTO 21005KT 2 1/2SM BR OVC002 07/07 A3032 RMK AO2 SLP269 T00720072 50005
 
KRDG - Reading, Pennsylvania, USA
Distance from station: S 59mi, 95km
Updated: Tue, 20-Feb-2018 9:54am EST
Fog, Overcast
Fog, Overcast
 Wind from calm
Wind: Calm
Temperature: 45°F , 7°C
Dew Point: 45°F , 7°C
Humidity: 100%
Barometer: 30.35 inHg , 1027.8 hPa
Summary: Fog
Clouds: Overcast
Visibility: 1/8 mile , 2 km
Cloud details: Overcast 300 ft
2018/02/20 14:54 KRDG 201454Z 00000KT 1/8SM R36/1600V1800FT FG VV003 07/07 A3035 RMK AO2 SFC VIS 1/2 SLP284 T00720072 51007
KUKT - Quakertown Arp, Pennsylvania, USA
Distance from station: SSE 61mi, 98km
Updated: Tue, 20-Feb-2018 9:55am EST
Mist, Overcast
Mist, Overcast
 Wind from SSW
Wind: SSW 6 mph , 9 km/h
Temperature: 50°F , 10°C
Wind Chill: 48°F , 9°C
Dew Point: 50°F , 10°C
Humidity: 100%
Barometer: 30.35 inHg , 1027.8 hPa
Summary: Mist
Clouds: Overcast
Visibility: 2 miles , 3 km
Cloud details: Overcast 100 ft
2018/02/20 14:55 KUKT 201455Z AUTO 21005KT 2SM BR OVC001 10/10 A3035 RMK A01
 
K12N - Andover, New Jersey, USA
Distance from station: ESE 63mi, 101km
Updated: Tue, 20-Feb-2018 9:54am EST

 Wind from SSW
Wind: SSW 6 mph , 9 km/h
Temperature: 46°F , 8°C
Wind Chill: 43°F , 6°C
Dew Point: 46°F , 8°C
Humidity: 100%
Barometer: 30.33 inHg , 1027.1 hPa
2018/02/20 14:54 K12N 201454Z AUTO 20005KT 08/08 A3033 RMK AO1 SLP278 T00780078 50006
KMUI - Muir Aaf/Indiant, Pennsylvania, USA
Distance from station: SSW 65mi, 105km
Updated: Tue, 20-Feb-2018 9:56am EST
Fog, Overcast
Fog, Overcast
 Wind from calm
Wind: Calm
Temperature: 45°F , 7°C
Dew Point: 45°F , 7°C
Humidity: 100%
Barometer: 30.35 inHg , 1027.8 hPa
Summary: Fog
Clouds: Overcast
Visibility: 1/8 mile , 2 km
Cloud details: Overcast 100 ft
2018/02/20 14:56 KMUI 201456Z 00000KT 1/8SM FG VV001 07/07 A3035 RMK AO2A SLP284 T00700070 50008 $
 
KFWN - Sussex, New Jersey, USA
Distance from station: E 66mi, 107km
Updated: Tue, 20-Feb-2018 9:53am EST
Overcast
Overcast
 Wind from SSW
Wind: SSW 8 mph , 13 km/h
Temperature: 46°F , 8°C
Wind Chill: 42°F , 6°C
Dew Point: 45°F , 7°C
Humidity: 93%
Barometer: 30.32 inHg , 1026.8 hPa
Clouds: Overcast
Visibility: 10 miles , 16 km
Cloud details: Overcast 500 ft
2018/02/20 14:53 KFWN 201453Z AUTO 21007KT 10SM OVC005 08/07 A3032 RMK AO2 SLP269 T00780072 50004
KMSV - Monticello, New York, USA
Distance from station: ENE 67mi, 108km
Updated: Tue, 20-Feb-2018 9:56am EST
Fog, Overcast
Fog, Overcast
 Wind from calm
Wind: Calm
Temperature: 39°F , 4°C
Dew Point: 39°F , 4°C
Humidity: 100%
Barometer: 30.29 inHg , 1025.7 hPa
Summary: Fog
Clouds: Overcast
Visibility: 1/4 mile , 2 km
Cloud details: Overcast 300 ft
2018/02/20 14:56 KMSV 201456Z AUTO 00000KT 1/4SM FG OVC003 04/04 A3029 RMK AO2 SLP272 T00390039 50005 RVRNO
 
KBGM - Binghamton, New York, USA
Distance from station: N 69mi, 111km
Updated: Tue, 20-Feb-2018 9:53am EST
Clear
Clear
 Wind from SSW
Wind: SSW 6 mph , 9 km/h
Temperature: 52°F , 11°C
Dew Point: 46°F , 8°C
Humidity: 82%
Barometer: 30.21 inHg , 1023 hPa
Clouds: Clear
Visibility: 10 miles , 16 km
2018/02/20 14:53 KBGM 201453Z 20005KT 10SM CLR 11/08 A3021 RMK AO2 SLP238 T01060083 51005
KPTW - Pottstown, Pennsylvania, USA
Distance from station: SSE 71mi, 114km
Updated: Tue, 20-Feb-2018 9:54am EST
Mist, Overcast
Mist, Overcast
 Wind from SSW
Wind: SSW 7 mph , 11 km/h
Temperature: 54°F , 12°C
Dew Point: 52°F , 11°C
Humidity: 94%
Barometer: 30.37 inHg , 1028.4 hPa
Summary: Mist
Clouds: Overcast
Visibility: 6 miles , 10 km
Cloud details: Overcast 700 ft
2018/02/20 14:54 KPTW 201454Z AUTO 20006KT 6SM BR OVC007 12/11 A3037 RMK AO2 CIG 006V013 SLP281 T01170111 53002
 
KDYL - Doylestown, Pennsylvania, USA
Distance from station: SE 74mi, 119km
Updated: Tue, 20-Feb-2018 10:07am EST
Overcast
Overcast
 Wind from SSW
Wind: SSW 8 mph , 13 km/h
Temperature: 54°F , 12°C
Dew Point: 52°F , 11°C
Humidity: 94%
Barometer: 30.34 inHg , 1027.4 hPa
Clouds: Overcast
Visibility: 10 miles , 16 km
Cloud details: Overcast 500 ft
2018/02/20 15:07 KDYL 201507Z AUTO 21007KT 10SM OVC005 12/11 A3034 RMK AO2 CIG 004V008 T01170106
KSMQ - Somerville, New Jersey, USA
Distance from station: ESE 77mi, 124km
Updated: Tue, 20-Feb-2018 10:02am EST
Mist, Overcast
Mist, Overcast
 Wind from calm
Wind: Calm
Temperature: 48°F , 9°C
Dew Point: 48°F , 9°C
Humidity: 100%
Barometer: 30.34 inHg , 1027.4 hPa
Summary: Mist
Clouds: Overcast
Visibility: 3 miles , 5 km
Cloud details: Overcast 600 ft
2018/02/20 15:02 KSMQ 201502Z AUTO 00000KT 3SM BR OVC006 09/09 A3034 RMK AO2 T00940089
 
KLNS - Lancaster, Pennsylvania, USA
Distance from station: SSW 79mi, 127km
Updated: Tue, 20-Feb-2018 10:06am EST
Mist, Overcast
Mist, Overcast
 Wind from SSW
Wind: SSW 5 mph , 7 km/h
Temperature: 52°F , 11°C
Dew Point: 52°F , 11°C
Humidity: 100%
Barometer: 30.35 inHg , 1027.8 hPa
Summary: Mist
Clouds: Overcast
Visibility: 6 miles , 10 km
Cloud details: Overcast 500 ft
2018/02/20 15:06 KLNS 201506Z 21004KT 6SM BR OVC005 11/11 A3035 RMK AO2 T01110111
KELM - Elmira, New York, USA
Distance from station: NW 82mi, 132km
Updated: Tue, 20-Feb-2018 9:53am EST
Overcast
Overcast
 Wind from calm
Wind: Calm
Temperature: 48°F , 9°C
Dew Point: 46°F , 8°C
Humidity: 94%
Barometer: 30.20 inHg , 1022.7 hPa
Clouds: Overcast
Visibility: 10 miles , 16 km
Cloud details: Overcast 9000 ft
2018/02/20 14:53 KELM 201453Z 00000KT 10SM OVC090 09/08 A3020 RMK AO2 SLP231 T00940083 50004
 
KLOM - Philly Wings F, Pennsylvania, USA
Distance from station: SSE 82mi, 132km
Updated: Tue, 20-Feb-2018 9:55am EST
Overcast
Overcast
 Wind from WSW
Wind: WSW 7 mph , 11 km/h
Temperature: 52°F , 11°C
Dew Point: 52°F , 11°C
Humidity: 100%
Barometer: 30.38 inHg , 1028.8 hPa
Clouds: Overcast
Visibility: 10 miles , 16 km
Cloud details: Overcast 600 ft
2018/02/20 14:55 KLOM 201455Z AUTO 24006KT 10SM OVC006 11/11 A3038 RMK AO1
KMMU - Morristown Muni, New Jersey, USA
Distance from station: ESE 83mi, 134km
Updated: Tue, 20-Feb-2018 9:45am EST
Mist, Overcast
Mist, Overcast
 Wind from WSW
Wind: WSW 9 mph , 15 km/h
Temperature: 50°F , 10°C
Wind Chill: 46°F , 8°C
Dew Point: 50°F , 10°C
Humidity: 100%
Barometer: 30.34 inHg , 1027.4 hPa
Summary: Mist
Clouds: Overcast
Visibility: 5 miles , 8 km
Cloud details: Overcast 900 ft
2018/02/20 14:45 KMMU 201445Z 25008KT 5SM BR OVC009 10/10 A3034

Metar display script from Saratoga-Weather.org


Cairn Terrier Rescue
teddybearweather.com 2009-2018